sensor_id;sensor_type;location;lat;lon;timestamp;P1;durP1;ratioP1;P2;durP2;ratioP2
36205;SDS011;22242;48.796;9.930;2023-02-15T00:02:00;30.50;;;15.80;;
36205;SDS011;22242;48.796;9.930;2023-02-15T00:04:27;38.80;;;18.15;;
36205;SDS011;22242;48.796;9.930;2023-02-15T00:07:14;40.60;;;17.70;;
36205;SDS011;22242;48.796;9.930;2023-02-15T00:09:41;34.22;;;17.48;;
36205;SDS011;22242;48.796;9.930;2023-02-15T00:12:09;36.80;;;17.42;;
36205;SDS011;22242;48.796;9.930;2023-02-15T00:14:36;39.17;;;18.10;;
36205;SDS011;22242;48.796;9.930;2023-02-15T00:17:03;39.72;;;17.88;;
36205;SDS011;22242;48.796;9.930;2023-02-15T00:19:30;40.25;;;17.55;;
36205;SDS011;22242;48.796;9.930;2023-02-15T00:21:57;40.65;;;17.88;;
36205;SDS011;22242;48.796;9.930;2023-02-15T00:24:27;38.40;;;16.25;;
36205;SDS011;22242;48.796;9.930;2023-02-15T00:26:54;47.70;;;21.40;;
36205;SDS011;22242;48.796;9.930;2023-02-15T00:29:21;47.42;;;23.38;;
36205;SDS011;22242;48.796;9.930;2023-02-15T00:31:48;48.03;;;22.00;;
36205;SDS011;22242;48.796;9.930;2023-02-15T00:34:16;45.75;;;20.08;;
36205;SDS011;22242;48.796;9.930;2023-02-15T00:36:44;38.42;;;19.08;;
36205;SDS011;22242;48.796;9.930;2023-02-15T00:39:13;34.88;;;17.63;;
36205;SDS011;22242;48.796;9.930;2023-02-15T00:41:44;35.83;;;17.30;;
36205;SDS011;22242;48.796;9.930;2023-02-15T00:44:11;33.58;;;17.85;;
36205;SDS011;22242;48.796;9.930;2023-02-15T00:46:38;34.80;;;16.67;;
36205;SDS011;22242;48.796;9.930;2023-02-15T00:49:08;35.92;;;17.20;;
36205;SDS011;22242;48.796;9.930;2023-02-15T00:51:36;34.08;;;17.08;;
36205;SDS011;22242;48.796;9.930;2023-02-15T00:54:04;29.50;;;15.18;;
36205;SDS011;22242;48.796;9.930;2023-02-15T00:56:31;34.92;;;16.55;;
36205;SDS011;22242;48.796;9.930;2023-02-15T00:59:03;33.55;;;15.77;;
36205;SDS011;22242;48.796;9.930;2023-02-15T01:01:31;30.85;;;15.63;;
36205;SDS011;22242;48.796;9.930;2023-02-15T01:03:59;39.35;;;16.75;;
36205;SDS011;22242;48.796;9.930;2023-02-15T01:06:28;32.85;;;16.33;;
36205;SDS011;22242;48.796;9.930;2023-02-15T01:08:55;34.25;;;17.02;;
36205;SDS011;22242;48.796;9.930;2023-02-15T01:11:23;30.30;;;15.85;;
36205;SDS011;22242;48.796;9.930;2023-02-15T01:13:50;35.05;;;16.65;;
36205;SDS011;22242;48.796;9.930;2023-02-15T01:16:20;33.28;;;17.17;;
36205;SDS011;22242;48.796;9.930;2023-02-15T01:18:47;31.45;;;15.65;;
36205;SDS011;22242;48.796;9.930;2023-02-15T01:21:16;32.70;;;16.33;;
36205;SDS011;22242;48.796;9.930;2023-02-15T01:23:44;32.35;;;16.92;;
36205;SDS011;22242;48.796;9.930;2023-02-15T01:26:12;32.78;;;15.50;;
36205;SDS011;22242;48.796;9.930;2023-02-15T01:28:42;31.52;;;16.10;;
36205;SDS011;22242;48.796;9.930;2023-02-15T01:31:10;33.05;;;17.48;;
36205;SDS011;22242;48.796;9.930;2023-02-15T01:33:40;34.00;;;16.25;;
36205;SDS011;22242;48.796;9.930;2023-02-15T01:36:08;30.02;;;15.02;;
36205;SDS011;22242;48.796;9.930;2023-02-15T01:38:37;31.35;;;15.63;;
36205;SDS011;22242;48.796;9.930;2023-02-15T01:41:05;34.75;;;16.80;;
36205;SDS011;22242;48.796;9.930;2023-02-15T01:43:50;35.38;;;16.58;;
36205;SDS011;22242;48.796;9.930;2023-02-15T01:46:19;34.97;;;16.95;;
36205;SDS011;22242;48.796;9.930;2023-02-15T01:48:54;36.53;;;16.85;;
36205;SDS011;22242;48.796;9.930;2023-02-15T01:51:26;38.38;;;17.13;;
36205;SDS011;22242;48.796;9.930;2023-02-15T01:53:57;30.63;;;16.38;;
36205;SDS011;22242;48.796;9.930;2023-02-15T01:56:29;31.20;;;16.23;;
36205;SDS011;22242;48.796;9.930;2023-02-15T01:59:00;32.50;;;16.02;;
36205;SDS011;22242;48.796;9.930;2023-02-15T02:01:30;35.92;;;16.73;;
36205;SDS011;22242;48.796;9.930;2023-02-15T02:04:00;31.85;;;16.42;;
36205;SDS011;22242;48.796;9.930;2023-02-15T02:06:32;29.17;;;15.10;;
36205;SDS011;22242;48.796;9.930;2023-02-15T02:09:02;31.08;;;16.08;;
36205;SDS011;22242;48.796;9.930;2023-02-15T02:11:29;33.15;;;15.90;;
36205;SDS011;22242;48.796;9.930;2023-02-15T02:13:56;33.58;;;16.20;;
36205;SDS011;22242;48.796;9.930;2023-02-15T02:16:24;32.65;;;17.38;;
36205;SDS011;22242;48.796;9.930;2023-02-15T02:19:02;36.50;;;16.35;;
36205;SDS011;22242;48.796;9.930;2023-02-15T02:21:53;33.60;;;16.25;;
36205;SDS011;22242;48.796;9.930;2023-02-15T02:24:53;34.05;;;16.05;;
36205;SDS011;22242;48.796;9.930;2023-02-15T02:27:46;31.88;;;15.85;;
36205;SDS011;22242;48.796;9.930;2023-02-15T02:30:25;36.10;;;16.63;;
36205;SDS011;22242;48.796;9.930;2023-02-15T02:33:28;33.10;;;15.90;;
36205;SDS011;22242;48.796;9.930;2023-02-15T02:36:15;31.58;;;15.98;;
36205;SDS011;22242;48.796;9.930;2023-02-15T02:38:50;34.47;;;15.73;;
36205;SDS011;22242;48.796;9.930;2023-02-15T02:41:27;31.75;;;15.57;;
36205;SDS011;22242;48.796;9.930;2023-02-15T02:44:02;30.77;;;16.52;;
36205;SDS011;22242;48.796;9.930;2023-02-15T02:46:41;30.58;;;14.95;;
36205;SDS011;22242;48.796;9.930;2023-02-15T02:49:21;28.95;;;15.25;;
36205;SDS011;22242;48.796;9.930;2023-02-15T02:51:58;35.63;;;16.48;;
36205;SDS011;22242;48.796;9.930;2023-02-15T02:54:26;31.77;;;15.63;;
36205;SDS011;22242;48.796;9.930;2023-02-15T02:56:54;31.92;;;17.10;;
36205;SDS011;22242;48.796;9.930;2023-02-15T02:59:24;31.40;;;15.77;;
36205;SDS011;22242;48.796;9.930;2023-02-15T03:01:57;34.83;;;15.93;;
36205;SDS011;22242;48.796;9.930;2023-02-15T03:04:30;29.63;;;15.15;;
36205;SDS011;22242;48.796;9.930;2023-02-15T03:07:02;34.33;;;16.05;;
36205;SDS011;22242;48.796;9.930;2023-02-15T03:09:33;30.15;;;15.18;;
36205;SDS011;22242;48.796;9.930;2023-02-15T03:12:08;28.48;;;14.18;;
36205;SDS011;22242;48.796;9.930;2023-02-15T03:14:40;30.33;;;14.98;;
36205;SDS011;22242;48.796;9.930;2023-02-15T03:17:10;29.95;;;15.82;;
36205;SDS011;22242;48.796;9.930;2023-02-15T03:19:40;29.38;;;15.40;;
36205;SDS011;22242;48.796;9.930;2023-02-15T03:22:12;28.40;;;15.02;;
36205;SDS011;22242;48.796;9.930;2023-02-15T03:24:42;29.13;;;14.75;;
36205;SDS011;22242;48.796;9.930;2023-02-15T03:27:14;28.92;;;14.73;;
36205;SDS011;22242;48.796;9.930;2023-02-15T03:29:46;31.73;;;16.20;;
36205;SDS011;22242;48.796;9.930;2023-02-15T03:32:18;30.60;;;15.27;;
36205;SDS011;22242;48.796;9.930;2023-02-15T03:34:47;28.88;;;15.25;;
36205;SDS011;22242;48.796;9.930;2023-02-15T03:37:15;34.63;;;15.93;;
36205;SDS011;22242;48.796;9.930;2023-02-15T03:39:50;30.48;;;15.02;;
36205;SDS011;22242;48.796;9.930;2023-02-15T03:42:22;33.10;;;16.13;;
36205;SDS011;22242;48.796;9.930;2023-02-15T03:44:54;31.52;;;15.52;;
36205;SDS011;22242;48.796;9.930;2023-02-15T03:47:25;29.25;;;14.52;;
36205;SDS011;22242;48.796;9.930;2023-02-15T03:49:57;29.35;;;15.20;;
36205;SDS011;22242;48.796;9.930;2023-02-15T03:52:28;30.40;;;15.30;;
36205;SDS011;22242;48.796;9.930;2023-02-15T03:54:56;30.10;;;15.57;;
36205;SDS011;22242;48.796;9.930;2023-02-15T03:57:24;33.15;;;15.57;;
36205;SDS011;22242;48.796;9.930;2023-02-15T04:00:11;28.35;;;14.70;;
36205;SDS011;22242;48.796;9.930;2023-02-15T04:03:02;27.65;;;14.50;;
36205;SDS011;22242;48.796;9.930;2023-02-15T04:05:47;30.08;;;14.38;;
36205;SDS011;22242;48.796;9.930;2023-02-15T04:08:14;27.98;;;14.32;;
36205;SDS011;22242;48.796;9.930;2023-02-15T04:10:41;30.80;;;15.25;;
36205;SDS011;22242;48.796;9.930;2023-02-15T04:13:24;28.20;;;15.13;;
36205;SDS011;22242;48.796;9.930;2023-02-15T04:15:56;29.15;;;14.77;;
36205;SDS011;22242;48.796;9.930;2023-02-15T04:18:33;27.58;;;14.27;;
36205;SDS011;22242;48.796;9.930;2023-02-15T04:21:20;28.13;;;14.73;;
36205;SDS011;22242;48.796;9.930;2023-02-15T04:24:05;26.27;;;14.10;;
36205;SDS011;22242;48.796;9.930;2023-02-15T04:26:50;29.98;;;14.65;;
36205;SDS011;22242;48.796;9.930;2023-02-15T04:29:18;28.23;;;15.07;;
36205;SDS011;22242;48.796;9.930;2023-02-15T04:31:46;29.90;;;15.30;;
36205;SDS011;22242;48.796;9.930;2023-02-15T04:34:13;31.05;;;15.65;;
36205;SDS011;22242;48.796;9.930;2023-02-15T04:36:42;31.85;;;15.93;;
36205;SDS011;22242;48.796;9.930;2023-02-15T04:39:09;30.88;;;15.00;;
36205;SDS011;22242;48.796;9.930;2023-02-15T04:41:39;32.22;;;15.98;;
36205;SDS011;22242;48.796;9.930;2023-02-15T04:44:06;30.63;;;15.68;;
36205;SDS011;22242;48.796;9.930;2023-02-15T04:46:34;30.70;;;15.93;;
36205;SDS011;22242;48.796;9.930;2023-02-15T04:49:01;29.45;;;15.25;;
36205;SDS011;22242;48.796;9.930;2023-02-15T04:51:29;33.00;;;16.42;;
36205;SDS011;22242;48.796;9.930;2023-02-15T04:53:57;30.95;;;16.20;;
36205;SDS011;22242;48.796;9.930;2023-02-15T04:56:24;30.05;;;15.32;;
36205;SDS011;22242;48.796;9.930;2023-02-15T04:58:51;29.38;;;15.65;;
36205;SDS011;22242;48.796;9.930;2023-02-15T05:01:18;32.05;;;16.00;;
36205;SDS011;22242;48.796;9.930;2023-02-15T05:03:45;32.90;;;16.00;;
36205;SDS011;22242;48.796;9.930;2023-02-15T05:06:12;29.42;;;15.13;;
36205;SDS011;22242;48.796;9.930;2023-02-15T05:08:39;30.48;;;15.23;;
36205;SDS011;22242;48.796;9.930;2023-02-15T05:11:08;31.40;;;16.38;;
36205;SDS011;22242;48.796;9.930;2023-02-15T05:13:34;32.60;;;16.27;;
36205;SDS011;22242;48.796;9.930;2023-02-15T05:16:01;31.83;;;16.55;;
36205;SDS011;22242;48.796;9.930;2023-02-15T05:18:28;30.38;;;15.45;;
36205;SDS011;22242;48.796;9.930;2023-02-15T05:20:55;39.65;;;18.95;;
36205;SDS011;22242;48.796;9.930;2023-02-15T05:23:23;36.40;;;18.67;;
36205;SDS011;22242;48.796;9.930;2023-02-15T05:25:50;38.38;;;18.80;;
36205;SDS011;22242;48.796;9.930;2023-02-15T05:28:37;41.88;;;21.67;;
36205;SDS011;22242;48.796;9.930;2023-02-15T05:31:05;35.13;;;18.00;;
36205;SDS011;22242;48.796;9.930;2023-02-15T05:33:33;36.50;;;17.30;;
36205;SDS011;22242;48.796;9.930;2023-02-15T05:36:01;36.00;;;18.05;;
36205;SDS011;22242;48.796;9.930;2023-02-15T05:38:29;32.20;;;16.60;;
36205;SDS011;22242;48.796;9.930;2023-02-15T05:40:57;32.10;;;17.25;;
36205;SDS011;22242;48.796;9.930;2023-02-15T05:43:24;30.13;;;15.68;;
36205;SDS011;22242;48.796;9.930;2023-02-15T05:45:53;32.42;;;15.80;;
36205;SDS011;22242;48.796;9.930;2023-02-15T05:48:21;33.97;;;16.50;;
36205;SDS011;22242;48.796;9.930;2023-02-15T05:50:56;32.92;;;15.52;;
36205;SDS011;22242;48.796;9.930;2023-02-15T05:53:23;32.42;;;17.17;;
36205;SDS011;22242;48.796;9.930;2023-02-15T05:55:51;31.45;;;15.10;;
36205;SDS011;22242;48.796;9.930;2023-02-15T05:58:18;34.72;;;17.60;;
36205;SDS011;22242;48.796;9.930;2023-02-15T06:00:46;33.53;;;16.67;;
36205;SDS011;22242;48.796;9.930;2023-02-15T06:03:14;34.22;;;16.30;;
36205;SDS011;22242;48.796;9.930;2023-02-15T06:05:41;31.10;;;16.27;;
36205;SDS011;22242;48.796;9.930;2023-02-15T06:08:09;32.67;;;17.17;;
36205;SDS011;22242;48.796;9.930;2023-02-15T06:10:36;34.17;;;17.70;;
36205;SDS011;22242;48.796;9.930;2023-02-15T06:13:05;33.55;;;17.30;;
36205;SDS011;22242;48.796;9.930;2023-02-15T06:15:32;35.03;;;20.08;;
36205;SDS011;22242;48.796;9.930;2023-02-15T06:17:59;32.85;;;18.95;;
36205;SDS011;22242;48.796;9.930;2023-02-15T06:20:28;34.28;;;17.58;;
36205;SDS011;22242;48.796;9.930;2023-02-15T06:22:55;34.10;;;17.85;;
36205;SDS011;22242;48.796;9.930;2023-02-15T06:25:22;35.33;;;18.00;;
36205;SDS011;22242;48.796;9.930;2023-02-15T06:27:49;36.67;;;18.17;;
36205;SDS011;22242;48.796;9.930;2023-02-15T06:30:17;30.05;;;15.93;;
36205;SDS011;22242;48.796;9.930;2023-02-15T06:32:44;33.00;;;17.08;;
36205;SDS011;22242;48.796;9.930;2023-02-15T06:35:11;37.47;;;18.63;;
36205;SDS011;22242;48.796;9.930;2023-02-15T06:37:39;32.83;;;18.33;;
36205;SDS011;22242;48.796;9.930;2023-02-15T06:40:07;33.60;;;17.92;;
36205;SDS011;22242;48.796;9.930;2023-02-15T06:42:36;37.45;;;18.25;;
36205;SDS011;22242;48.796;9.930;2023-02-15T06:45:03;35.33;;;18.80;;
36205;SDS011;22242;48.796;9.930;2023-02-15T06:47:30;30.45;;;16.65;;
36205;SDS011;22242;48.796;9.930;2023-02-15T06:49:57;31.42;;;17.40;;
36205;SDS011;22242;48.796;9.930;2023-02-15T06:52:24;32.10;;;16.35;;
36205;SDS011;22242;48.796;9.930;2023-02-15T06:54:52;34.70;;;17.02;;
36205;SDS011;22242;48.796;9.930;2023-02-15T06:57:19;32.38;;;16.08;;
36205;SDS011;22242;48.796;9.930;2023-02-15T06:59:46;32.60;;;16.25;;
36205;SDS011;22242;48.796;9.930;2023-02-15T07:02:13;32.22;;;16.58;;
36205;SDS011;22242;48.796;9.930;2023-02-15T07:04:41;30.30;;;15.27;;
36205;SDS011;22242;48.796;9.930;2023-02-15T07:07:08;32.63;;;16.35;;
36205;SDS011;22242;48.796;9.930;2023-02-15T07:09:36;30.40;;;15.45;;
36205;SDS011;22242;48.796;9.930;2023-02-15T07:12:05;30.52;;;15.32;;
36205;SDS011;22242;48.796;9.930;2023-02-15T07:14:50;31.50;;;15.35;;
36205;SDS011;22242;48.796;9.930;2023-02-15T07:17:17;28.50;;;16.13;;
36205;SDS011;22242;48.796;9.930;2023-02-15T07:19:44;33.20;;;16.55;;
36205;SDS011;22242;48.796;9.930;2023-02-15T07:22:11;35.55;;;18.95;;
36205;SDS011;22242;48.796;9.930;2023-02-15T07:24:38;36.20;;;19.02;;
36205;SDS011;22242;48.796;9.930;2023-02-15T07:27:07;41.55;;;19.38;;
36205;SDS011;22242;48.796;9.930;2023-02-15T07:29:34;37.83;;;20.33;;
36205;SDS011;22242;48.796;9.930;2023-02-15T07:32:01;34.83;;;18.23;;
36205;SDS011;22242;48.796;9.930;2023-02-15T07:34:28;35.03;;;17.85;;
36205;SDS011;22242;48.796;9.930;2023-02-15T07:36:55;33.15;;;17.23;;
36205;SDS011;22242;48.796;9.930;2023-02-15T07:39:22;32.95;;;17.83;;
36205;SDS011;22242;48.796;9.930;2023-02-15T07:41:49;31.75;;;17.00;;
36205;SDS011;22242;48.796;9.930;2023-02-15T07:44:18;29.83;;;16.65;;
36205;SDS011;22242;48.796;9.930;2023-02-15T07:46:45;74.05;;;34.78;;
36205;SDS011;22242;48.796;9.930;2023-02-15T07:49:12;46.58;;;25.20;;
36205;SDS011;22242;48.796;9.930;2023-02-15T07:51:40;44.97;;;22.08;;
36205;SDS011;22242;48.796;9.930;2023-02-15T07:54:07;32.42;;;17.63;;
36205;SDS011;22242;48.796;9.930;2023-02-15T07:56:34;29.10;;;16.25;;
36205;SDS011;22242;48.796;9.930;2023-02-15T07:59:01;26.00;;;15.07;;
36205;SDS011;22242;48.796;9.930;2023-02-15T08:01:30;27.17;;;14.70;;
36205;SDS011;22242;48.796;9.930;2023-02-15T08:03:59;21.80;;;13.80;;
36205;SDS011;22242;48.796;9.930;2023-02-15T08:06:26;19.58;;;13.23;;
36205;SDS011;22242;48.796;9.930;2023-02-15T08:08:55;16.02;;;13.00;;
36205;SDS011;22242;48.796;9.930;2023-02-15T08:11:22;16.65;;;13.02;;
36205;SDS011;22242;48.796;9.930;2023-02-15T08:13:58;14.45;;;12.18;;
36205;SDS011;22242;48.796;9.930;2023-02-15T08:16:31;14.07;;;11.60;;
36205;SDS011;22242;48.796;9.930;2023-02-15T08:19:01;13.85;;;11.52;;
36205;SDS011;22242;48.796;9.930;2023-02-15T08:21:30;13.73;;;11.35;;
36205;SDS011;22242;48.796;9.930;2023-02-15T08:23:58;14.25;;;11.57;;
36205;SDS011;22242;48.796;9.930;2023-02-15T08:26:26;13.48;;;12.00;;
36205;SDS011;22242;48.796;9.930;2023-02-15T08:28:54;15.35;;;12.40;;
36205;SDS011;22242;48.796;9.930;2023-02-15T08:31:21;15.25;;;12.60;;
36205;SDS011;22242;48.796;9.930;2023-02-15T08:33:50;13.82;;;12.40;;
36205;SDS011;22242;48.796;9.930;2023-02-15T08:36:19;13.27;;;11.40;;
36205;SDS011;22242;48.796;9.930;2023-02-15T08:38:48;15.55;;;13.70;;
36205;SDS011;22242;48.796;9.930;2023-02-15T08:41:16;13.35;;;11.93;;
36205;SDS011;22242;48.796;9.930;2023-02-15T08:43:45;13.10;;;11.80;;
36205;SDS011;22242;48.796;9.930;2023-02-15T08:46:14;13.93;;;11.45;;
36205;SDS011;22242;48.796;9.930;2023-02-15T08:48:42;12.73;;;11.40;;
36205;SDS011;22242;48.796;9.930;2023-02-15T08:51:12;13.50;;;12.07;;
36205;SDS011;22242;48.796;9.930;2023-02-15T08:53:40;24.63;;;20.73;;
36205;SDS011;22242;48.796;9.930;2023-02-15T08:56:09;27.33;;;21.13;;
36205;SDS011;22242;48.796;9.930;2023-02-15T08:58:37;16.42;;;14.68;;
36205;SDS011;22242;48.796;9.930;2023-02-15T09:01:08;13.80;;;12.40;;
36205;SDS011;22242;48.796;9.930;2023-02-15T09:03:36;29.25;;;26.02;;
36205;SDS011;22242;48.796;9.930;2023-02-15T09:06:03;14.30;;;12.63;;
36205;SDS011;22242;48.796;9.930;2023-02-15T09:08:32;15.00;;;13.43;;
36205;SDS011;22242;48.796;9.930;2023-02-15T09:11:06;12.75;;;11.48;;
36205;SDS011;22242;48.796;9.930;2023-02-15T09:13:34;13.52;;;11.65;;
36205;SDS011;22242;48.796;9.930;2023-02-15T09:16:02;12.27;;;11.00;;
36205;SDS011;22242;48.796;9.930;2023-02-15T09:18:31;14.30;;;12.90;;
36205;SDS011;22242;48.796;9.930;2023-02-15T09:21:04;24.25;;;17.90;;
36205;SDS011;22242;48.796;9.930;2023-02-15T09:23:33;24.75;;;19.88;;
36205;SDS011;22242;48.796;9.930;2023-02-15T09:26:04;14.60;;;12.25;;
36205;SDS011;22242;48.796;9.930;2023-02-15T09:28:33;12.95;;;11.48;;
36205;SDS011;22242;48.796;9.930;2023-02-15T09:31:04;12.25;;;10.95;;
36205;SDS011;22242;48.796;9.930;2023-02-15T09:33:36;12.98;;;11.60;;
36205;SDS011;22242;48.796;9.930;2023-02-15T09:36:04;14.52;;;13.02;;
36205;SDS011;22242;48.796;9.930;2023-02-15T09:38:40;12.25;;;11.05;;
36205;SDS011;22242;48.796;9.930;2023-02-15T09:41:23;12.63;;;11.32;;
36205;SDS011;22242;48.796;9.930;2023-02-15T09:44:11;11.75;;;10.45;;
36205;SDS011;22242;48.796;9.930;2023-02-15T09:46:56;12.15;;;10.82;;
36205;SDS011;22242;48.796;9.930;2023-02-15T09:49:43;12.27;;;10.50;;
36205;SDS011;22242;48.796;9.930;2023-02-15T09:52:21;11.43;;;10.30;;
36205;SDS011;22242;48.796;9.930;2023-02-15T09:55:08;11.45;;;10.45;;
36205;SDS011;22242;48.796;9.930;2023-02-15T09:57:47;11.70;;;10.50;;
36205;SDS011;22242;48.796;9.930;2023-02-15T10:00:23;10.98;;;9.98;;
36205;SDS011;22242;48.796;9.930;2023-02-15T10:05:51;12.10;;;10.30;;
36205;SDS011;22242;48.796;9.930;2023-02-15T10:08:32;11.45;;;10.25;;
36205;SDS011;22242;48.796;9.930;2023-02-15T10:11:14;11.90;;;9.95;;
36205;SDS011;22242;48.796;9.930;2023-02-15T10:17:14;12.27;;;10.32;;
36205;SDS011;22242;48.796;9.930;2023-02-15T10:19:51;12.93;;;10.70;;
36205;SDS011;22242;48.796;9.930;2023-02-15T10:22:33;12.25;;;11.05;;
36205;SDS011;22242;48.796;9.930;2023-02-15T10:25:10;11.95;;;10.75;;
36205;SDS011;22242;48.796;9.930;2023-02-15T10:27:48;12.23;;;10.82;;
36205;SDS011;22242;48.796;9.930;2023-02-15T10:30:15;12.15;;;10.85;;
36205;SDS011;22242;48.796;9.930;2023-02-15T10:32:50;12.38;;;11.13;;
36205;SDS011;22242;48.796;9.930;2023-02-15T10:35:26;12.25;;;11.02;;
36205;SDS011;22242;48.796;9.930;2023-02-15T10:38:15;11.98;;;10.60;;
36205;SDS011;22242;48.796;9.930;2023-02-15T10:40:55;12.77;;;10.65;;
36205;SDS011;22242;48.796;9.930;2023-02-15T10:43:38;11.52;;;10.43;;
36205;SDS011;22242;48.796;9.930;2023-02-15T10:46:19;10.40;;;9.30;;
36205;SDS011;22242;48.796;9.930;2023-02-15T10:49:15;12.38;;;11.13;;
36205;SDS011;22242;48.796;9.930;2023-02-15T10:51:56;12.93;;;10.25;;
36205;SDS011;22242;48.796;9.930;2023-02-15T10:54:36;12.87;;;10.60;;
36205;SDS011;22242;48.796;9.930;2023-02-15T10:57:10;11.85;;;10.60;;
36205;SDS011;22242;48.796;9.930;2023-02-15T10:59:53;12.55;;;10.68;;
36205;SDS011;22242;48.796;9.930;2023-02-15T11:02:33;11.52;;;10.18;;
36205;SDS011;22242;48.796;9.930;2023-02-15T11:05:20;13.82;;;10.80;;
36205;SDS011;22242;48.796;9.930;2023-02-15T11:07:57;16.15;;;10.45;;
36205;SDS011;22242;48.796;9.930;2023-02-15T11:10:28;12.63;;;11.00;;
36205;SDS011;22242;48.796;9.930;2023-02-15T11:15:32;13.07;;;10.55;;
36205;SDS011;22242;48.796;9.930;2023-02-15T11:18:05;13.88;;;10.75;;
36205;SDS011;22242;48.796;9.930;2023-02-15T11:20:38;13.15;;;11.02;;
36205;SDS011;22242;48.796;9.930;2023-02-15T11:23:12;16.05;;;11.00;;
36205;SDS011;22242;48.796;9.930;2023-02-15T11:25:44;13.77;;;10.65;;
36205;SDS011;22242;48.796;9.930;2023-02-15T11:28:19;12.05;;;10.13;;
36205;SDS011;22242;48.796;9.930;2023-02-15T11:30:53;11.90;;;10.50;;
36205;SDS011;22242;48.796;9.930;2023-02-15T11:33:23;14.15;;;11.25;;
36205;SDS011;22242;48.796;9.930;2023-02-15T11:35:55;13.77;;;11.70;;
36205;SDS011;22242;48.796;9.930;2023-02-15T11:38:28;12.38;;;10.77;;
36205;SDS011;22242;48.796;9.930;2023-02-15T11:40:59;15.25;;;11.70;;
36205;SDS011;22242;48.796;9.930;2023-02-15T11:43:32;12.73;;;10.77;;
36205;SDS011;22242;48.796;9.930;2023-02-15T11:46:04;13.27;;;11.18;;
36205;SDS011;22242;48.796;9.930;2023-02-15T11:48:31;12.25;;;9.63;;
36205;SDS011;22242;48.796;9.930;2023-02-15T11:50:59;14.48;;;11.20;;
36205;SDS011;22242;48.796;9.930;2023-02-15T11:53:28;14.38;;;11.00;;
36205;SDS011;22242;48.796;9.930;2023-02-15T11:56:00;13.65;;;10.10;;
36205;SDS011;22242;48.796;9.930;2023-02-15T11:58:30;14.85;;;10.93;;
36205;SDS011;22242;48.796;9.930;2023-02-15T12:01:08;12.45;;;10.48;;
36205;SDS011;22242;48.796;9.930;2023-02-15T12:03:43;13.80;;;10.63;;
36205;SDS011;22242;48.796;9.930;2023-02-15T12:06:16;14.85;;;10.13;;
36205;SDS011;22242;48.796;9.930;2023-02-15T12:09:01;13.60;;;10.38;;
36205;SDS011;22242;48.796;9.930;2023-02-15T12:11:33;15.32;;;10.82;;
36205;SDS011;22242;48.796;9.930;2023-02-15T12:14:03;15.70;;;11.23;;
36205;SDS011;22242;48.796;9.930;2023-02-15T12:16:33;15.32;;;10.88;;
36205;SDS011;22242;48.796;9.930;2023-02-15T12:19:11;19.08;;;12.40;;
36205;SDS011;22242;48.796;9.930;2023-02-15T12:21:51;14.98;;;11.45;;
36205;SDS011;22242;48.796;9.930;2023-02-15T12:24:19;19.90;;;12.15;;
36205;SDS011;22242;48.796;9.930;2023-02-15T12:26:55;16.88;;;12.05;;
36205;SDS011;22242;48.796;9.930;2023-02-15T12:29:26;16.25;;;11.43;;
36205;SDS011;22242;48.796;9.930;2023-02-15T12:31:57;15.20;;;10.60;;
36205;SDS011;22242;48.796;9.930;2023-02-15T12:34:26;16.08;;;10.60;;
36205;SDS011;22242;48.796;9.930;2023-02-15T12:36:57;14.30;;;9.27;;
36205;SDS011;22242;48.796;9.930;2023-02-15T12:39:27;17.08;;;10.35;;
36205;SDS011;22242;48.796;9.930;2023-02-15T12:42:00;16.70;;;9.60;;
36205;SDS011;22242;48.796;9.930;2023-02-15T12:44:30;20.52;;;9.98;;
36205;SDS011;22242;48.796;9.930;2023-02-15T12:47:01;11.88;;;9.27;;
36205;SDS011;22242;48.796;9.930;2023-02-15T12:49:30;13.07;;;8.90;;
36205;SDS011;22242;48.796;9.930;2023-02-15T12:51:58;13.68;;;9.60;;
36205;SDS011;22242;48.796;9.930;2023-02-15T12:54:34;13.38;;;9.38;;
36205;SDS011;22242;48.796;9.930;2023-02-15T12:57:23;14.18;;;9.70;;
36205;SDS011;22242;48.796;9.930;2023-02-15T12:59:53;14.02;;;8.85;;
36205;SDS011;22242;48.796;9.930;2023-02-15T13:02:23;13.75;;;8.63;;
36205;SDS011;22242;48.796;9.930;2023-02-15T13:04:53;15.00;;;8.23;;
36205;SDS011;22242;48.796;9.930;2023-02-15T13:07:23;12.18;;;7.65;;
36205;SDS011;22242;48.796;9.930;2023-02-15T13:09:55;10.95;;;7.68;;
36205;SDS011;22242;48.796;9.930;2023-02-15T13:12:23;13.13;;;7.55;;
36205;SDS011;22242;48.796;9.930;2023-02-15T13:14:53;13.48;;;7.80;;
36205;SDS011;22242;48.796;9.930;2023-02-15T13:17:23;11.55;;;7.63;;
36205;SDS011;22242;48.796;9.930;2023-02-15T13:19:56;11.35;;;8.25;;
36205;SDS011;22242;48.796;9.930;2023-02-15T13:22:31;10.70;;;7.75;;
36205;SDS011;22242;48.796;9.930;2023-02-15T13:25:05;11.80;;;7.88;;
36205;SDS011;22242;48.796;9.930;2023-02-15T13:27:40;10.07;;;7.70;;
36205;SDS011;22242;48.796;9.930;2023-02-15T13:30:20;12.85;;;8.27;;
36205;SDS011;22242;48.796;9.930;2023-02-15T13:32:54;13.63;;;8.23;;
36205;SDS011;22242;48.796;9.930;2023-02-15T13:35:24;13.57;;;8.40;;
36205;SDS011;22242;48.796;9.930;2023-02-15T13:40:50;12.00;;;7.63;;
36205;SDS011;22242;48.796;9.930;2023-02-15T13:43:25;13.70;;;7.45;;
36205;SDS011;22242;48.796;9.930;2023-02-15T13:46:11;12.68;;;7.80;;
36205;SDS011;22242;48.796;9.930;2023-02-15T13:48:49;14.60;;;7.38;;
36205;SDS011;22242;48.796;9.930;2023-02-15T13:51:26;12.38;;;7.35;;
36205;SDS011;22242;48.796;9.930;2023-02-15T13:54:04;13.55;;;7.53;;
36205;SDS011;22242;48.796;9.930;2023-02-15T13:56:48;13.60;;;7.32;;
36205;SDS011;22242;48.796;9.930;2023-02-15T13:59:47;8.55;;;6.75;;
36205;SDS011;22242;48.796;9.930;2023-02-15T14:02:30;10.18;;;6.70;;
36205;SDS011;22242;48.796;9.930;2023-02-15T14:05:17;14.73;;;7.50;;
36205;SDS011;22242;48.796;9.930;2023-02-15T14:07:56;10.18;;;6.80;;
36205;SDS011;22242;48.796;9.930;2023-02-15T14:10:35;15.02;;;7.25;;
36205;SDS011;22242;48.796;9.930;2023-02-15T14:13:22;14.05;;;7.40;;
36205;SDS011;22242;48.796;9.930;2023-02-15T14:16:13;10.70;;;7.10;;
36205;SDS011;22242;48.796;9.930;2023-02-15T14:18:48;12.30;;;6.85;;
36205;SDS011;22242;48.796;9.930;2023-02-15T14:21:21;12.75;;;7.50;;
36205;SDS011;22242;48.796;9.930;2023-02-15T14:24:00;12.85;;;6.78;;
36205;SDS011;22242;48.796;9.930;2023-02-15T14:26:40;10.85;;;7.07;;
36205;SDS011;22242;48.796;9.930;2023-02-15T14:29:16;12.35;;;8.18;;
36205;SDS011;22242;48.796;9.930;2023-02-15T14:31:51;13.45;;;7.60;;
36205;SDS011;22242;48.796;9.930;2023-02-15T14:34:22;12.05;;;7.60;;
36205;SDS011;22242;48.796;9.930;2023-02-15T14:36:52;12.93;;;7.00;;
36205;SDS011;22242;48.796;9.930;2023-02-15T14:39:26;11.55;;;7.13;;
36205;SDS011;22242;48.796;9.930;2023-02-15T14:42:18;10.70;;;7.75;;
36205;SDS011;22242;48.796;9.930;2023-02-15T14:44:53;12.32;;;7.22;;
36205;SDS011;22242;48.796;9.930;2023-02-15T14:47:27;9.38;;;6.45;;
36205;SDS011;22242;48.796;9.930;2023-02-15T14:49:58;9.27;;;6.60;;
36205;SDS011;22242;48.796;9.930;2023-02-15T14:52:26;12.95;;;7.63;;
36205;SDS011;22242;48.796;9.930;2023-02-15T14:54:57;10.48;;;6.93;;
36205;SDS011;22242;48.796;9.930;2023-02-15T14:57:26;12.57;;;7.45;;
36205;SDS011;22242;48.796;9.930;2023-02-15T14:59:57;12.57;;;6.75;;
36205;SDS011;22242;48.796;9.930;2023-02-15T15:02:26;12.05;;;6.90;;
36205;SDS011;22242;48.796;9.930;2023-02-15T15:04:57;14.60;;;7.95;;